createdAt,value
2019-06-01T00:00:51.364Z,1017.68
2019-06-01T00:01:51.356Z,1017.70
2019-06-01T00:02:55.526Z,1017.72
2019-06-01T00:03:52.333Z,1017.72
2019-06-01T00:04:51.323Z,1017.66
2019-06-01T00:05:51.311Z,1017.73
2019-06-01T00:06:51.301Z,1017.72
2019-06-01T00:07:51.291Z,1017.74
2019-06-01T00:08:51.296Z,1017.73
2019-06-01T00:09:51.268Z,1017.74
2019-06-01T00:10:51.258Z,1017.75
2019-06-01T00:11:51.250Z,1017.77
2019-06-01T00:12:51.237Z,1017.74
2019-06-01T00:13:51.242Z,1017.76
2019-06-01T00:14:51.218Z,1017.74
2019-06-01T00:15:51.205Z,1017.71
2019-06-01T00:16:51.196Z,1017.72
2019-06-01T00:17:51.184Z,1017.71
2019-06-01T00:18:51.175Z,1017.71
2019-06-01T00:19:51.167Z,1017.75
2019-06-01T00:20:51.153Z,1017.72
2019-06-01T00:21:52.259Z,1017.72
2019-06-01T00:22:51.759Z,1017.73
2019-06-01T00:23:51.124Z,1017.71
2019-06-01T00:24:52.295Z,1017.70
2019-06-01T00:25:51.100Z,1017.70
2019-06-01T00:26:52.073Z,1017.71
2019-06-01T00:27:51.105Z,1017.69
2019-06-01T00:28:52.909Z,1017.71
2019-06-01T00:29:51.062Z,1017.76
2019-06-01T00:30:52.064Z,1017.72
2019-06-01T00:31:52.127Z,1017.72
2019-06-01T00:32:51.338Z,1017.74
2019-06-01T00:33:51.769Z,1017.72
2019-06-01T00:34:51.870Z,1017.69
2019-06-01T00:35:51.623Z,1017.71
2019-06-01T00:36:51.962Z,1017.72
2019-06-01T00:37:51.792Z,1017.68
2019-06-01T00:38:52.021Z,1017.64
2019-06-01T00:39:52.000Z,1017.63
2019-06-01T00:40:52.017Z,1017.65
2019-06-01T00:41:52.380Z,1017.63
2019-06-01T00:42:50.920Z,1017.65
2019-06-01T00:43:50.909Z,1017.64
2019-06-01T00:44:50.899Z,1017.63
2019-06-01T00:45:50.999Z,1017.62
2019-06-01T00:46:50.879Z,1017.64
2019-06-01T00:47:50.972Z,1017.58
2019-06-01T00:48:52.113Z,1017.61
2019-06-01T00:49:51.123Z,1017.61
2019-06-01T00:50:51.076Z,1017.59
2019-06-01T00:51:52.076Z,1017.60
2019-06-01T00:52:51.401Z,1017.60
2019-06-01T00:53:51.810Z,1017.64
2019-06-01T00:54:51.675Z,1017.61
2019-06-01T00:55:51.583Z,1017.59
2019-06-01T00:56:51.682Z,1017.60
2019-06-01T00:57:51.896Z,1017.61
2019-06-01T00:58:51.858Z,1017.65
2019-06-01T00:59:53.102Z,1017.61
2019-06-01T01:00:52.042Z,1017.63
2019-06-01T01:01:52.116Z,1017.66
2019-06-01T01:02:50.710Z,1017.67
2019-06-01T01:03:50.701Z,1017.69
2019-06-01T01:04:50.692Z,1017.68
2019-06-01T01:05:50.788Z,1017.64
2019-06-01T01:06:50.910Z,1017.68
2019-06-01T01:07:51.607Z,1017.69
2019-06-01T01:08:50.991Z,1017.70
2019-06-01T01:09:50.861Z,1017.68
2019-06-01T01:10:51.097Z,1017.68
2019-06-01T01:11:51.238Z,1017.69
2019-06-01T01:12:51.115Z,1017.66
2019-06-01T01:13:51.276Z,1017.68
2019-06-01T01:14:51.290Z,1017.68
2019-06-01T01:15:51.404Z,1017.68
2019-06-01T01:16:51.669Z,1017.68
2019-06-01T01:17:51.891Z,1017.72
2019-06-01T01:18:51.758Z,1017.66
2019-06-01T01:19:51.880Z,1017.67
2019-06-01T01:20:50.521Z,1017.67
2019-06-01T01:21:50.510Z,1017.69
2019-06-01T01:22:50.500Z,1017.72
2019-06-01T01:23:50.487Z,1017.69
2019-06-01T01:24:50.560Z,1017.67
2019-06-01T01:25:50.566Z,1017.68
2019-06-01T01:26:50.595Z,1017.68
2019-06-01T01:27:50.668Z,1017.65
2019-06-01T01:28:50.734Z,1017.66
2019-06-01T01:29:50.939Z,1017.64
2019-06-01T01:31:03.013Z,1017.67
2019-06-01T01:31:51.400Z,1017.66
2019-06-01T01:32:51.706Z,1017.65
2019-06-01T01:33:51.395Z,1017.64
2019-06-01T01:34:51.500Z,1017.64
2019-06-01T01:35:52.392Z,1017.67
2019-06-01T01:36:50.350Z,1017.66
2019-06-01T01:37:50.343Z,1017.65
2019-06-01T01:38:50.503Z,1017.65
2019-06-01T01:39:50.315Z,1017.66
2019-06-01T01:40:50.307Z,1017.66
2019-06-01T01:41:50.300Z,1017.63
2019-06-01T01:42:50.607Z,1017.61
2019-06-01T01:43:50.412Z,1017.64
2019-06-01T01:44:50.505Z,1017.65
2019-06-01T01:45:50.662Z,1017.63
2019-06-01T01:46:50.719Z,1017.60
2019-06-01T01:47:50.841Z,1017.62
2019-06-01T01:48:50.218Z,1017.64
2019-06-01T01:49:50.211Z,1017.65
2019-06-01T01:50:50.298Z,1017.63
2019-06-01T01:51:50.450Z,1017.67
2019-06-01T01:52:50.638Z,1017.65
2019-06-01T01:53:50.569Z,1017.65
2019-06-01T01:54:50.634Z,1017.69
2019-06-01T01:55:50.931Z,1017.65
2019-06-01T01:56:50.135Z,1017.62
2019-06-01T01:57:51.179Z,1017.65
2019-06-01T01:58:50.339Z,1017.63
2019-06-01T01:59:51.212Z,1017.60
2019-06-01T02:00:52.476Z,1017.58
2019-06-01T02:01:50.410Z,1017.60
2019-06-01T02:02:50.073Z,1017.57
2019-06-01T02:03:51.407Z,1017.57
2019-06-01T02:04:50.049Z,1017.55
2019-06-01T02:05:50.751Z,1017.55
2019-06-01T02:06:50.028Z,1017.55
2019-06-01T02:07:50.938Z,1017.55
2019-06-01T02:08:50.986Z,1017.51
2019-06-01T02:09:51.081Z,1017.50
2019-06-01T02:10:51.105Z,1017.51
2019-06-01T02:11:51.293Z,1017.53
2019-06-01T02:12:51.300Z,1017.50
2019-06-01T02:13:49.955Z,1017.46
2019-06-01T02:14:49.940Z,1017.47
2019-06-01T02:15:49.929Z,1017.45
2019-06-01T02:16:49.918Z,1017.47
2019-06-01T02:17:49.907Z,1017.42
2019-06-01T02:18:49.923Z,1017.45
2019-06-01T02:19:49.886Z,1017.42
2019-06-01T02:20:49.885Z,1017.41
2019-06-01T02:21:49.865Z,1017.40
2019-06-01T02:22:49.854Z,1017.40
2019-06-01T02:23:49.843Z,1017.39
2019-06-01T02:24:49.834Z,1017.35
2019-06-01T02:25:49.825Z,1017.33
2019-06-01T02:26:49.811Z,1017.33
2019-06-01T02:27:49.802Z,1017.33
2019-06-01T02:28:49.790Z,1017.29
2019-06-01T02:29:49.777Z,1017.28
2019-06-01T02:30:49.775Z,1017.27
2019-06-01T02:31:49.757Z,1017.28
2019-06-01T02:32:49.748Z,1017.23
2019-06-01T02:33:49.756Z,1017.23
2019-06-01T02:34:49.726Z,1017.27
2019-06-01T02:35:49.717Z,1017.25
2019-06-01T02:36:49.725Z,1017.28
2019-06-01T02:37:49.695Z,1017.24
2019-06-01T02:38:49.682Z,1017.24
2019-06-01T02:39:49.672Z,1017.22
2019-06-01T02:40:49.660Z,1017.24
2019-06-01T02:41:49.652Z,1017.24
2019-06-01T02:42:49.644Z,1017.26
2019-06-01T02:43:49.629Z,1017.27
2019-06-01T02:44:49.620Z,1017.23
2019-06-01T02:45:49.610Z,1017.25
2019-06-01T02:46:49.601Z,1017.25
2019-06-01T02:47:49.592Z,1017.26
2019-06-01T02:48:49.590Z,1017.24
2019-06-01T02:49:49.566Z,1017.24
2019-06-01T02:50:49.557Z,1017.27
2019-06-01T02:51:49.544Z,1017.27
2019-06-01T02:52:49.536Z,1017.28
2019-06-01T02:53:49.529Z,1017.25
2019-06-01T02:54:49.512Z,1017.27
2019-06-01T02:55:49.505Z,1017.27
2019-06-01T02:56:49.493Z,1017.25
2019-06-01T02:57:49.482Z,1017.25
2019-06-01T02:58:49.471Z,1017.28
2019-06-01T02:59:49.462Z,1017.25
2019-06-01T03:00:49.451Z,1017.28
2019-06-01T03:01:57.156Z,1017.28
2019-06-01T03:02:50.427Z,1017.29
2019-06-01T03:03:49.420Z,1017.26
2019-06-01T03:04:49.408Z,1017.29
2019-06-01T03:05:49.398Z,1017.28
2019-06-01T03:06:49.396Z,1017.27
2019-06-01T03:07:49.416Z,1017.30
2019-06-01T03:08:49.369Z,1017.30
2019-06-01T03:09:49.355Z,1017.30
2019-06-01T03:10:49.345Z,1017.27
2019-06-01T03:11:49.335Z,1017.27
2019-06-01T03:12:49.324Z,1017.25
2019-06-01T03:13:49.316Z,1017.26
2019-06-01T03:14:49.304Z,1017.25
2019-06-01T03:15:49.297Z,1017.21
2019-06-01T03:16:49.282Z,1017.21
2019-06-01T03:17:49.270Z,1017.23
2019-06-01T03:18:49.262Z,1017.21
2019-06-01T03:19:49.254Z,1017.21
2019-06-01T03:20:49.238Z,1017.21
2019-06-01T03:21:49.230Z,1017.23
2019-06-01T03:22:49.218Z,1017.26
2019-06-01T03:23:49.220Z,1017.24
2019-06-01T03:24:49.197Z,1017.26
2019-06-01T03:25:49.193Z,1017.24
2019-06-01T03:26:49.174Z,1017.27
2019-06-01T03:27:49.165Z,1017.24
2019-06-01T03:28:49.165Z,1017.23
2019-06-01T03:29:49.145Z,1017.24
2019-06-01T03:30:49.139Z,1017.17
2019-06-01T03:31:49.128Z,1017.14
2019-06-01T03:32:49.112Z,1017.18
2019-06-01T03:33:49.108Z,1017.16
2019-06-01T03:34:49.090Z,1017.13
2019-06-01T03:35:49.083Z,1017.14
2019-06-01T03:36:49.094Z,1017.12
2019-06-01T03:37:49.060Z,1017.13
2019-06-01T03:38:49.051Z,1017.17
2019-06-01T03:39:49.037Z,1017.14
2019-06-01T03:40:49.028Z,1017.15
2019-06-01T03:41:49.020Z,1017.12
2019-06-01T03:42:49.007Z,1017.13
2019-06-01T03:43:48.998Z,1017.15
2019-06-01T03:44:48.995Z,1017.14
2019-06-01T03:45:48.974Z,1017.16
2019-06-01T03:46:48.963Z,1017.15
2019-06-01T03:47:48.954Z,1017.22
2019-06-01T03:48:48.948Z,1017.16
2019-06-01T03:49:48.932Z,1017.16
2019-06-01T03:50:48.921Z,1017.19
2019-06-01T03:51:48.919Z,1017.18
2019-06-01T03:52:48.905Z,1017.16
2019-06-01T03:53:48.894Z,1017.22
2019-06-01T03:54:48.881Z,1017.24
2019-06-01T03:55:48.867Z,1017.24
2019-06-01T03:56:48.858Z,1017.24
2019-06-01T03:57:48.849Z,1017.26
2019-06-01T03:58:48.838Z,1017.25
2019-06-01T03:59:48.829Z,1017.27
2019-06-01T04:00:48.822Z,1017.28
2019-06-01T04:01:48.812Z,1017.25
2019-06-01T04:02:48.794Z,1017.25
2019-06-01T04:03:48.783Z,1017.24
2019-06-01T04:04:48.779Z,1017.26
2019-06-01T04:05:48.767Z,1017.27
2019-06-01T04:06:48.758Z,1017.26
2019-06-01T04:07:48.743Z,1017.26
2019-06-01T04:08:48.732Z,1017.26
2019-06-01T04:09:48.723Z,1017.28
2019-06-01T04:10:48.710Z,1017.27
2019-06-01T04:11:48.720Z,1017.32
2019-06-01T04:12:48.708Z,1017.32
2019-06-01T04:13:48.678Z,1017.31
2019-06-01T04:14:48.667Z,1017.30
2019-06-01T04:15:48.658Z,1017.31
2019-06-01T04:16:48.649Z,1017.31
2019-06-01T04:17:48.637Z,1017.30
2019-06-01T04:18:48.629Z,1017.33
2019-06-01T04:19:48.653Z,1017.31
2019-06-01T04:20:48.605Z,1017.29
2019-06-01T04:21:48.592Z,1017.31
2019-06-01T04:22:48.588Z,1017.31
2019-06-01T04:23:48.574Z,1017.32
2019-06-01T04:24:48.585Z,1017.35
2019-06-01T04:25:48.551Z,1017.31
2019-06-01T04:26:48.543Z,1017.33
2019-06-01T04:27:48.531Z,1017.34
2019-06-01T04:28:48.532Z,1017.32
2019-06-01T04:29:48.516Z,1017.33
2019-06-01T04:30:48.498Z,1017.33
2019-06-01T04:31:48.494Z,1017.31
2019-06-01T04:32:50.247Z,1017.36
2019-06-01T04:33:48.470Z,1017.35
2019-06-01T04:34:48.455Z,1017.36
2019-06-01T04:35:48.446Z,1017.38
2019-06-01T04:36:48.435Z,1017.37
2019-06-01T04:37:48.425Z,1017.38
2019-06-01T04:38:48.412Z,1017.39
2019-06-01T04:39:48.404Z,1017.42
2019-06-01T04:40:48.402Z,1017.40
2019-06-01T04:41:48.381Z,1017.41
2019-06-01T04:42:48.400Z,1017.40
2019-06-01T04:43:48.361Z,1017.42
2019-06-01T04:44:48.357Z,1017.45
2019-06-01T04:45:48.344Z,1017.43
2019-06-01T04:46:48.333Z,1017.47
2019-06-01T04:47:48.319Z,1017.46
2019-06-01T04:48:48.309Z,1017.49
2019-06-01T04:49:48.296Z,1017.49
2019-06-01T04:50:48.286Z,1017.47
2019-06-01T04:51:48.277Z,1017.49
2019-06-01T04:52:48.269Z,1017.52
2019-06-01T04:53:48.252Z,1017.51
2019-06-01T04:54:48.247Z,1017.52
2019-06-01T04:55:48.232Z,1017.55
2019-06-01T04:56:48.220Z,1017.54
2019-06-01T04:57:48.221Z,1017.53
2019-06-01T04:58:48.199Z,1017.53
2019-06-01T04:59:48.188Z,1017.51
2019-06-01T05:00:48.179Z,1017.49
2019-06-01T05:01:48.168Z,1017.47
2019-06-01T05:02:48.157Z,1017.45
2019-06-01T05:03:48.146Z,1017.44
2019-06-01T05:04:48.137Z,1017.44
2019-06-01T05:05:48.124Z,1017.48
2019-06-01T05:06:48.116Z,1017.50
2019-06-01T05:07:48.102Z,1017.53
2019-06-01T05:08:48.102Z,1017.48
2019-06-01T05:09:48.083Z,1017.50
2019-06-01T05:10:48.072Z,1017.54
2019-06-01T05:11:48.094Z,1017.48
2019-06-01T05:12:48.072Z,1017.52
2019-06-01T05:13:48.039Z,1017.51
2019-06-01T05:14:48.028Z,1017.51
2019-06-01T05:15:48.019Z,1017.56
2019-06-01T05:16:48.010Z,1017.54
2019-06-01T05:17:47.997Z,1017.54
2019-06-01T05:18:47.988Z,1017.57
2019-06-01T05:19:47.985Z,1017.57
2019-06-01T05:20:47.980Z,1017.58
2019-06-01T05:21:47.956Z,1017.55
2019-06-01T05:22:47.947Z,1017.55
2019-06-01T05:23:47.934Z,1017.58
2019-06-01T05:24:47.926Z,1017.58
2019-06-01T05:25:47.914Z,1017.58
2019-06-01T05:26:47.908Z,1017.59
2019-06-01T05:27:47.892Z,1017.58
2019-06-01T05:28:47.882Z,1017.56
2019-06-01T05:29:47.870Z,1017.57
2019-06-01T05:30:47.862Z,1017.62
2019-06-01T05:31:47.853Z,1017.59
2019-06-01T05:32:47.841Z,1017.63
2019-06-01T05:33:47.829Z,1017.62
2019-06-01T05:34:47.818Z,1017.60
2019-06-01T05:35:47.813Z,1017.58
2019-06-01T05:36:47.799Z,1017.59
2019-06-01T05:37:47.788Z,1017.57
2019-06-01T05:38:47.778Z,1017.61
2019-06-01T05:39:47.767Z,1017.59
2019-06-01T05:40:47.755Z,1017.60
2019-06-01T05:41:47.745Z,1017.60
2019-06-01T05:42:47.734Z,1017.63
2019-06-01T05:43:47.724Z,1017.67
2019-06-01T05:44:47.712Z,1017.65
2019-06-01T05:45:47.703Z,1017.65
2019-06-01T05:46:47.718Z,1017.65
2019-06-01T05:47:47.681Z,1017.65
2019-06-01T05:48:47.673Z,1017.63
2019-06-01T05:49:47.682Z,1017.60
2019-06-01T05:50:47.650Z,1017.62
2019-06-01T05:51:47.657Z,1017.63
2019-06-01T05:52:47.628Z,1017.65
2019-06-01T05:53:47.617Z,1017.64
2019-06-01T05:54:47.608Z,1017.59
2019-06-01T05:55:47.600Z,1017.61
2019-06-01T05:56:47.585Z,1017.59
2019-06-01T05:57:47.583Z,1017.63
2019-06-01T05:58:47.567Z,1017.59
2019-06-01T05:59:47.553Z,1017.62
2019-06-01T06:00:47.544Z,1017.63
2019-06-01T06:01:47.537Z,1017.61
2019-06-01T06:02:47.525Z,1017.65
2019-06-01T06:03:47.516Z,1017.65
2019-06-01T06:04:47.502Z,1017.66
2019-06-01T06:05:47.491Z,1017.66
2019-06-01T06:06:47.482Z,1017.65
2019-06-01T06:07:47.470Z,1017.65
2019-06-01T06:08:47.472Z,1017.65
2019-06-01T06:09:47.469Z,1017.65
2019-06-01T06:10:47.438Z,1017.67
2019-06-01T06:11:47.427Z,1017.66
2019-06-01T06:12:47.416Z,1017.64
2019-06-01T06:13:47.408Z,1017.62
2019-06-01T06:14:47.396Z,1017.67
2019-06-01T06:15:47.388Z,1017.66
2019-06-01T06:16:47.383Z,1017.72
2019-06-01T06:17:47.364Z,1017.64
2019-06-01T06:18:47.355Z,1017.64
2019-06-01T06:19:47.344Z,1017.64
2019-06-01T06:20:47.332Z,1017.64
2019-06-01T06:21:47.321Z,1017.68
2019-06-01T06:22:47.315Z,1017.62
2019-06-01T06:23:47.304Z,1017.63
2019-06-01T06:24:47.292Z,1017.66
2019-06-01T06:25:47.281Z,1017.66
2019-06-01T06:26:47.271Z,1017.65
2019-06-01T06:27:47.260Z,1017.65
2019-06-01T06:28:47.249Z,1017.64
2019-06-01T06:29:47.238Z,1017.64
2019-06-01T06:30:47.228Z,1017.69
2019-06-01T06:31:47.221Z,1017.64
2019-06-01T06:32:47.210Z,1017.66
2019-06-01T06:33:55.921Z,1017.69
2019-06-01T06:34:48.191Z,1017.70
2019-06-01T06:35:47.175Z,1017.69
2019-06-01T06:36:47.166Z,1017.73
2019-06-01T06:37:47.155Z,1017.73
2019-06-01T06:38:47.148Z,1017.72
2019-06-01T06:39:47.143Z,1017.71
2019-06-01T06:40:47.120Z,1017.72
2019-06-01T06:41:47.121Z,1017.71
2019-06-01T06:42:47.138Z,1017.69
2019-06-01T06:43:47.114Z,1017.68
2019-06-01T06:44:47.082Z,1017.68
2019-06-01T06:45:47.072Z,1017.70
2019-06-01T06:46:47.062Z,1017.72
2019-06-01T06:47:47.048Z,1017.68
2019-06-01T06:48:47.037Z,1017.70
2019-06-01T06:49:47.032Z,1017.72
2019-06-01T06:50:47.023Z,1017.74
2019-06-01T06:51:47.004Z,1017.74
2019-06-01T06:52:47.004Z,1017.72
2019-06-01T06:53:46.986Z,1017.70
2019-06-01T06:54:46.972Z,1017.70
2019-06-01T06:55:46.960Z,1017.68
2019-06-01T06:56:46.980Z,1017.72
2019-06-01T06:57:46.947Z,1017.71
2019-06-01T06:58:46.940Z,1017.71
2019-06-01T06:59:46.919Z,1017.71
2019-06-01T07:00:46.921Z,1017.72
2019-06-01T07:01:46.904Z,1017.73
2019-06-01T07:02:46.900Z,1017.68
2019-06-01T07:03:46.880Z,1017.68
2019-06-01T07:04:46.866Z,1017.73
2019-06-01T07:05:46.855Z,1017.69
2019-06-01T07:06:46.877Z,1017.67
2019-06-01T07:07:46.836Z,1017.68
2019-06-01T07:08:48.797Z,1017.67
2019-06-01T07:09:46.853Z,1017.69
2019-06-01T07:10:46.807Z,1017.66
2019-06-01T07:11:46.809Z,1017.68
2019-06-01T07:12:46.792Z,1017.70
2019-06-01T07:13:46.795Z,1017.67
2019-06-01T07:14:46.760Z,1017.69
2019-06-01T07:15:46.751Z,1017.70
2019-06-01T07:16:46.748Z,1017.72
2019-06-01T07:17:46.754Z,1017.72
2019-06-01T07:18:46.726Z,1017.69
2019-06-01T07:19:46.707Z,1017.74
2019-06-01T07:20:46.705Z,1017.72
2019-06-01T07:21:46.697Z,1017.71
2019-06-01T07:22:46.674Z,1017.70
2019-06-01T07:23:46.663Z,1017.66
2019-06-01T07:24:46.674Z,1017.70
2019-06-01T07:25:46.658Z,1017.64
2019-06-01T07:26:46.637Z,1017.64
2019-06-01T07:27:46.630Z,1017.63
2019-06-01T07:28:46.632Z,1017.61
2019-06-01T07:29:46.617Z,1017.64
2019-06-01T07:30:50.387Z,1017.66
2019-06-01T07:31:46.579Z,1017.66
2019-06-01T07:32:46.569Z,1017.66
2019-06-01T07:33:46.559Z,1017.67
2019-06-01T07:34:46.549Z,1017.66
2019-06-01T07:35:46.539Z,1017.64
2019-06-01T07:36:46.533Z,1017.64
2019-06-01T07:37:46.518Z,1017.61
2019-06-01T07:38:46.520Z,1017.61
2019-06-01T07:39:46.494Z,1017.64
2019-06-01T07:40:46.494Z,1017.62
2019-06-01T07:41:46.480Z,1017.63
2019-06-01T07:42:46.471Z,1017.65
2019-06-01T07:43:46.452Z,1017.62
2019-06-01T07:44:46.442Z,1017.61
2019-06-01T07:45:46.429Z,1017.64
2019-06-01T07:46:46.421Z,1017.62
2019-06-01T07:47:46.410Z,1017.61
2019-06-01T07:48:46.403Z,1017.61
2019-06-01T07:49:46.387Z,1017.64
2019-06-01T07:50:46.378Z,1017.64
2019-06-01T07:51:46.407Z,1017.60
2019-06-01T07:52:46.373Z,1017.59
2019-06-01T07:53:46.350Z,1017.62
2019-06-01T07:54:46.336Z,1017.65
2019-06-01T07:55:46.319Z,1017.65
2019-06-01T07:56:46.312Z,1017.61
2019-06-01T07:57:46.298Z,1017.62
2019-06-01T07:58:46.286Z,1017.63
2019-06-01T07:59:46.279Z,1017.65
2019-06-01T08:00:46.265Z,1017.62
2019-06-01T08:01:46.258Z,1017.63
2019-06-01T08:02:46.244Z,1017.69
2019-06-01T08:03:46.233Z,1017.65
2019-06-01T08:04:53.622Z,1017.68
2019-06-01T08:05:47.212Z,1017.73
2019-06-01T08:06:48.429Z,1017.72
2019-06-01T08:07:46.188Z,1017.72
2019-06-01T08:08:46.178Z,1017.73
2019-06-01T08:09:46.172Z,1017.71
2019-06-01T08:10:46.155Z,1017.74
2019-06-01T08:11:46.147Z,1017.73
2019-06-01T08:12:46.133Z,1017.77
2019-06-01T08:13:46.122Z,1017.72
2019-06-01T08:14:46.112Z,1017.74
2019-06-01T08:15:46.112Z,1017.72
2019-06-01T08:16:46.093Z,1017.72
2019-06-01T08:17:46.081Z,1017.70
2019-06-01T08:18:46.074Z,1017.69
2019-06-01T08:19:46.060Z,1017.71
2019-06-01T08:20:46.047Z,1017.70
2019-06-01T08:21:46.036Z,1017.63
2019-06-01T08:22:46.024Z,1017.66
2019-06-01T08:23:46.019Z,1017.64
2019-06-01T08:24:46.009Z,1017.60
2019-06-01T08:25:45.992Z,1017.57
2019-06-01T08:26:45.981Z,1017.59
2019-06-01T08:27:45.975Z,1017.53
2019-06-01T08:28:45.965Z,1017.53
2019-06-01T08:29:45.955Z,1017.56
2019-06-01T08:30:45.943Z,1017.55
2019-06-01T08:31:45.930Z,1017.57
2019-06-01T08:32:45.927Z,1017.53
2019-06-01T08:33:45.905Z,1017.53
2019-06-01T08:34:45.899Z,1017.56
2019-06-01T08:35:45.883Z,1017.57
2019-06-01T08:36:45.875Z,1017.56
2019-06-01T08:37:45.863Z,1017.57
2019-06-01T08:38:45.884Z,1017.50
2019-06-01T08:39:45.845Z,1017.51
2019-06-01T08:40:45.830Z,1017.48
2019-06-01T08:41:45.821Z,1017.46
2019-06-01T08:42:45.814Z,1017.45
2019-06-01T08:43:45.800Z,1017.42
2019-06-01T08:44:45.787Z,1017.40
2019-06-01T08:45:45.781Z,1017.39
2019-06-01T08:46:45.767Z,1017.36
2019-06-01T08:47:45.757Z,1017.37
2019-06-01T08:48:45.744Z,1017.34
2019-06-01T08:49:45.735Z,1017.36
2019-06-01T08:50:46.307Z,1017.32
2019-06-01T08:51:45.720Z,1017.33
2019-06-01T08:52:45.702Z,1017.28
2019-06-01T08:53:45.705Z,1017.30
2019-06-01T08:54:45.682Z,1017.32
2019-06-01T08:55:45.675Z,1017.31
2019-06-01T08:56:45.663Z,1017.33
2019-06-01T08:57:45.678Z,1017.28
2019-06-01T08:58:45.640Z,1017.30
2019-06-01T08:59:45.632Z,1017.25
2019-06-01T09:00:45.631Z,1017.30
2019-06-01T09:01:45.627Z,1017.21
2019-06-01T09:02:45.597Z,1017.22
2019-06-01T09:03:47.041Z,1017.20
2019-06-01T09:04:45.582Z,1017.17
2019-06-01T09:05:45.575Z,1017.16
2019-06-01T09:06:45.554Z,1017.11
2019-06-01T09:07:45.546Z,1017.14
2019-06-01T09:08:45.536Z,1017.09
2019-06-01T09:09:45.528Z,1017.08
2019-06-01T09:10:45.514Z,1017.03
2019-06-01T09:11:45.522Z,1017.09
2019-06-01T09:12:45.497Z,1017.08
2019-06-01T09:13:45.483Z,1017.08
2019-06-01T09:14:45.471Z,1017.06
2019-06-01T09:15:45.461Z,1017.05
2019-06-01T09:16:45.456Z,1017.10
2019-06-01T09:17:45.445Z,1017.09
2019-06-01T09:18:45.430Z,1017.15
2019-06-01T09:19:45.420Z,1017.13
2019-06-01T09:20:45.409Z,1017.14
2019-06-01T09:21:45.406Z,1017.14
2019-06-01T09:22:48.074Z,1017.17
2019-06-01T09:23:45.381Z,1017.18
2019-06-01T09:24:45.364Z,1017.17
2019-06-01T09:25:45.362Z,1017.17
2019-06-01T09:26:45.349Z,1017.13
2019-06-01T09:27:45.333Z,1017.11
2019-06-01T09:28:45.322Z,1017.10
2019-06-01T09:29:45.313Z,1017.12
2019-06-01T09:30:45.319Z,1017.11
2019-06-01T09:31:45.292Z,1017.12
2019-06-01T09:32:45.283Z,1017.12
2019-06-01T09:33:45.268Z,1017.12
2019-06-01T09:34:45.259Z,1017.09
2019-06-01T09:35:55.314Z,1017.08
2019-06-01T09:36:46.235Z,1017.09
2019-06-01T09:37:45.926Z,1017.08
2019-06-01T09:38:45.214Z,1017.07
2019-06-01T09:39:45.208Z,1017.06
2019-06-01T09:40:45.239Z,1017.10
2019-06-01T09:41:45.183Z,1017.09
2019-06-01T09:42:45.177Z,1017.13
2019-06-01T09:43:45.167Z,1017.08
2019-06-01T09:44:45.149Z,1017.04
2019-06-01T09:45:45.139Z,1017.09
2019-06-01T09:46:45.127Z,1017.04
2019-06-01T09:47:45.397Z,1017.07
2019-06-01T09:48:45.105Z,1017.10
2019-06-01T09:49:45.096Z,1017.10
2019-06-01T09:50:45.087Z,1017.10
2019-06-01T09:51:45.072Z,1017.10
2019-06-01T09:52:45.065Z,1017.11
2019-06-01T09:53:45.052Z,1017.10
2019-06-01T09:54:45.043Z,1017.15
2019-06-01T09:55:45.031Z,1017.14
2019-06-01T09:56:45.018Z,1017.09
2019-06-01T09:57:45.006Z,1017.08
2019-06-01T09:58:44.996Z,1017.12
2019-06-01T09:59:44.986Z,1017.11
2019-06-01T10:00:44.981Z,1017.11
2019-06-01T10:01:44.966Z,1017.09
2019-06-01T10:02:45.345Z,1017.13
2019-06-01T10:03:44.943Z,1017.11
2019-06-01T10:04:44.932Z,1017.09
2019-06-01T10:06:00.696Z,1017.07
2019-06-01T10:06:45.911Z,1017.06
2019-06-01T10:07:44.898Z,1017.02
2019-06-01T10:08:44.888Z,1017.01
2019-06-01T10:09:44.878Z,1017.03
2019-06-01T10:10:44.879Z,1017.03
2019-06-01T10:11:44.854Z,1016.99
2019-06-01T10:12:44.845Z,1017.03
2019-06-01T10:13:44.834Z,1017.01
2019-06-01T10:14:44.822Z,1017.02
2019-06-01T10:15:44.812Z,1017.08
2019-06-01T10:16:44.802Z,1017.03
2019-06-01T10:17:44.791Z,1017.04
2019-06-01T10:18:44.798Z,1017.01
2019-06-01T10:19:44.771Z,1017.03
2019-06-01T10:20:44.759Z,1016.98
2019-06-01T10:21:44.748Z,1016.95
2019-06-01T10:22:44.738Z,1016.95
2019-06-01T10:23:49.025Z,1016.94
2019-06-01T10:24:45.716Z,1016.93
2019-06-01T10:25:44.703Z,1016.96
2019-06-01T10:26:44.698Z,1016.93
2019-06-01T10:27:44.695Z,1016.92
2019-06-01T10:28:44.674Z,1016.96
2019-06-01T10:29:44.661Z,1016.91
2019-06-01T10:30:44.649Z,1016.94
2019-06-01T10:31:44.637Z,1016.90
2019-06-01T10:32:44.632Z,1016.88
2019-06-01T10:33:44.633Z,1016.86
2019-06-01T10:34:44.608Z,1016.78
2019-06-01T10:35:44.597Z,1016.79
2019-06-01T10:36:44.588Z,1016.71
2019-06-01T10:37:44.577Z,1016.72
2019-06-01T10:38:44.563Z,1016.73
2019-06-01T10:39:44.565Z,1016.70
2019-06-01T10:40:44.546Z,1016.68
2019-06-01T10:41:44.530Z,1016.66
2019-06-01T10:42:44.518Z,1016.62
2019-06-01T10:43:44.513Z,1016.64
2019-06-01T10:44:45.812Z,1016.66
2019-06-01T10:45:44.506Z,1016.72
2019-06-01T10:46:44.482Z,1016.72
2019-06-01T10:47:44.464Z,1016.70
2019-06-01T10:48:44.453Z,1016.67
2019-06-01T10:49:44.444Z,1016.61
2019-06-01T10:50:44.438Z,1016.63
2019-06-01T10:51:44.421Z,1016.63
2019-06-01T10:52:44.415Z,1016.58
2019-06-01T10:53:44.403Z,1016.57
2019-06-01T10:54:44.390Z,1016.49
2019-06-01T10:55:44.378Z,1016.50
2019-06-01T10:56:44.371Z,1016.53
2019-06-01T10:57:44.358Z,1016.47
2019-06-01T10:58:59.154Z,1016.46
2019-06-01T10:59:45.335Z,1016.43
2019-06-01T11:00:50.572Z,1016.48
2019-06-01T11:01:45.321Z,1016.51
2019-06-01T11:02:44.309Z,1016.41
2019-06-01T11:03:44.294Z,1016.47
2019-06-01T11:04:44.299Z,1016.45
2019-06-01T11:05:44.274Z,1016.46
2019-06-01T11:06:48.307Z,1016.46
2019-06-01T11:07:44.254Z,1016.47
2019-06-01T11:08:44.246Z,1016.46
2019-06-01T11:09:44.232Z,1016.49
2019-06-01T11:10:44.234Z,1016.54
2019-06-01T11:11:44.209Z,1016.53
2019-06-01T11:12:44.198Z,1016.51
2019-06-01T11:13:44.204Z,1016.48
2019-06-01T11:14:44.176Z,1016.48
2019-06-01T11:15:44.171Z,1016.51
2019-06-01T11:16:44.312Z,1016.46
2019-06-01T11:17:44.143Z,1016.42
2019-06-01T11:18:44.148Z,1016.47
2019-06-01T11:19:44.128Z,1016.42
2019-06-01T11:20:44.112Z,1016.39
2019-06-01T11:21:44.099Z,1016.37
2019-06-01T11:22:44.087Z,1016.34
2019-06-01T11:23:46.486Z,1016.34
2019-06-01T11:24:44.091Z,1016.19
2019-06-01T11:25:44.064Z,1016.17
2019-06-01T11:26:44.045Z,1016.24
2019-06-01T11:27:44.147Z,1016.17
2019-06-01T11:28:44.437Z,1016.23
2019-06-01T11:29:50.773Z,1016.22
2019-06-01T11:30:45.016Z,1016.23
2019-06-01T11:31:44.264Z,1016.22
2019-06-01T11:32:45.129Z,1016.24
2019-06-01T11:33:44.359Z,1016.17
2019-06-01T11:34:44.536Z,1016.17
2019-06-01T11:35:45.335Z,1016.14
2019-06-01T11:37:01.834Z,1016.24
2019-06-01T11:37:44.926Z,1016.19
2019-06-01T11:38:44.962Z,1016.21
2019-06-01T11:39:44.814Z,1016.23
2019-06-01T11:40:44.804Z,1016.17
2019-06-01T11:41:44.795Z,1016.19
2019-06-01T11:42:45.099Z,1016.20
2019-06-01T11:43:45.872Z,1016.17
2019-06-01T11:44:44.915Z,1016.19
2019-06-01T11:45:45.124Z,1016.16
2019-06-01T11:46:44.984Z,1016.14
2019-06-01T11:47:44.834Z,1016.15
2019-06-01T11:48:45.256Z,1016.14
2019-06-01T11:49:44.936Z,1016.10
2019-06-01T11:50:45.255Z,1016.11
2019-06-01T11:51:43.779Z,1016.15
2019-06-01T11:52:43.765Z,1016.10
2019-06-01T11:53:43.757Z,1016.06
2019-06-01T11:54:43.744Z,1016.02
2019-06-01T11:55:43.735Z,1016.05
2019-06-01T11:56:43.722Z,1016.03
2019-06-01T11:57:43.728Z,1015.98
2019-06-01T11:58:43.719Z,1016.00
2019-06-01T11:59:43.697Z,1015.98
2019-06-01T12:00:43.819Z,1015.98
2019-06-01T12:01:44.184Z,1015.99
2019-06-01T12:02:43.898Z,1015.91
2019-06-01T12:03:43.950Z,1015.89
2019-06-01T12:04:44.121Z,1015.84
2019-06-01T12:05:44.102Z,1015.87